Time;durP1;ratioP1;P1;durP2;ratioP2;P2;SDS_P1;SDS_P2;PMS_P1;PMS_P2;Temp;Humidity;BMP_temperature;BMP_pressure;BME280_temperature;BME280_humidity;BME280_pressure;Samples;Min_cycle;Max_cycle;Signal;HPM_P1;HPM_P2
2022/08/15 05:37:56;;;;;;;;;;;16.10;51.50;;;;;;6148751;23;20023;-73
2022/08/15 05:40:23;;;;;;;;;;;16.10;51.60;;;;;;6154482;23;19936;-73
2022/08/15 05:42:49;;;;;;;;;;;16.10;51.80;;;;;;6154594;23;19909;-73
2022/08/15 05:45:32;;;;;;;;;;;16.10;51.50;;;;;;6154556;23;20240;-73
2022/08/15 05:48:31;;;;;;;;;;;16.00;51.60;;;;;;6126615;23;20247;-72
2022/08/15 05:51:25;;;;;;;;;;;16.00;51.80;;;;;;6090107;23;19936;-72
2022/08/15 05:54:10;;;;;;;;;;;16.00;52.50;;;;;;6151323;23;19992;-75
2022/08/15 05:56:54;;;;;;;;;;;16.00;51.80;;;;;;6150991;23;19919;-75
2022/08/15 05:59:21;;;;;;;;;;;16.00;51.80;;;;;;6151544;23;19909;-77
2022/08/15 06:01:49;;;;;;;;;;;15.90;52.10;;;;;;6125699;23;19905;-76
2022/08/15 06:04:22;;;;;;;;;;;15.90;51.80;;;;;;6123239;23;19915;-75
2022/08/15 06:06:49;;;;;;;;;;;15.90;52.40;;;;;;6151317;23;19913;-77
2022/08/15 06:09:19;;;;;;;;;;;15.80;52.60;;;;;;6152042;23;19909;-76
2022/08/15 06:11:47;;;;;;;;;;;15.80;51.90;;;;;;6125244;23;19925;-77
2022/08/15 06:14:33;;;;;;;;;;;15.80;52.10;;;;;;6100634;23;19909;-76
2022/08/15 06:17:04;;;;;;;;;;;15.80;51.90;;;;;;6150240;23;19940;-81
2022/08/15 06:19:32;;;;;;;;;;;15.70;51.70;;;;;;6125184;23;19931;-75
2022/08/15 06:22:20;;;;;;;;;;;15.70;52.20;;;;;;6151233;23;19915;-77
2022/08/15 06:24:51;;;;;;;;;;;15.60;52.20;;;;;;6125455;23;19908;-77
2022/08/15 06:27:20;;;;;;;;;;;15.60;51.70;;;;;;6123651;23;20279;-74
2022/08/15 06:29:50;;;;;;;;;;;15.60;51.70;;;;;;6149602;23;19909;-73
2022/08/15 06:32:26;;;;;;;;;;;15.50;52.20;;;;;;6150628;23;19913;-75
2022/08/15 06:34:52;;;;;;;;;;;15.50;52.20;;;;;;6124442;23;19916;-76
2022/08/15 06:37:22;;;;;;;;;;;15.50;52.20;;;;;;6124249;23;19951;-77
2022/08/15 06:39:49;;;;;;;;;;;15.40;51.70;;;;;;6148599;23;20028;-79
2022/08/15 06:42:16;;;;;;;;;;;15.40;51.90;;;;;;6148977;23;20177;-77
2022/08/15 06:44:42;;;;;;;;;;;15.40;51.80;;;;;;6150350;23;20236;-75
2022/08/15 06:47:09;;;;;;;;;;;15.30;51.70;;;;;;6151140;23;19913;-77
2022/08/15 06:49:40;;;;;;;;;;;15.30;52.30;;;;;;6149524;23;19904;-75
2022/08/15 06:52:07;;;;;;;;;;;15.30;52.10;;;;;;6124940;23;19916;-75
2022/08/15 06:54:35;;;;;;;;;;;15.30;52.20;;;;;;6124085;23;20331;-75
2022/08/15 06:57:13;;;;;;;;;;;15.20;52.40;;;;;;6150996;23;19909;-75
2022/08/15 06:59:58;;;;;;;;;;;15.20;52.20;;;;;;6124052;23;19908;-75
2022/08/15 07:02:43;;;;;;;;;;;15.20;52.40;;;;;;6151036;23;19920;-76
2022/08/15 07:05:10;;;;;;;;;;;15.20;53.30;;;;;;6148394;23;19916;-76
2022/08/15 07:07:46;;;;;;;;;;;15.10;53.30;;;;;;6151091;23;20342;-77
2022/08/15 07:10:44;;;;;;;;;;;15.10;53.60;;;;;;6150426;23;19912;-76
2022/08/15 07:13:16;;;;;;;;;;;15.10;53.50;;;;;;6085658;23;19916;-75
2022/08/15 07:15:52;;;;;;;;;;;15.00;53.70;;;;;;6125472;23;19908;-78
2022/08/15 07:18:37;;;;;;;;;;;15.00;53.90;;;;;;6148299;23;19908;-76
2022/08/15 07:21:05;;;;;;;;;;;15.00;54.30;;;;;;6150362;23;20000;-73
2022/08/15 07:23:32;;;;;;;;;;;14.90;54.40;;;;;;6123375;23;19909;-75
2022/08/15 07:26:10;;;;;;;;;;;14.90;54.40;;;;;;6100856;23;20340;-74
2022/08/15 07:28:38;;;;;;;;;;;14.90;54.40;;;;;;6149057;23;19909;-73
2022/08/15 07:31:20;;;;;;;;;;;14.80;54.70;;;;;;6100806;23;19920;-73
2022/08/15 07:33:48;;;;;;;;;;;14.80;54.20;;;;;;6124571;23;19913;-75
2022/08/15 07:36:28;;;;;;;;;;;14.80;54.40;;;;;;6125063;23;19915;-79
2022/08/15 07:38:55;;;;;;;;;;;14.80;54.50;;;;;;6123663;23;19917;-71
2022/08/15 07:41:24;;;;;;;;;;;14.70;55.00;;;;;;6125247;23;19909;-72
2022/08/15 07:43:53;;;;;;;;;;;14.70;54.20;;;;;;6152367;23;19993;-73
2022/08/15 07:46:25;;;;;;;;;;;14.70;54.90;;;;;;6126660;23;20391;-74
2022/08/15 07:48:59;;;;;;;;;;;14.70;55.00;;;;;;6100520;23;20232;-76
2022/08/15 07:51:27;;;;;;;;;;;14.70;55.40;;;;;;6101842;23;19917;-76
2022/08/15 07:53:54;;;;;;;;;;;14.70;55.80;;;;;;6100136;23;19915;-76
2022/08/15 07:56:21;;;;;;;;;;;14.70;55.70;;;;;;6152552;23;20219;-74
2022/08/15 07:58:48;;;;;;;;;;;14.70;56.20;;;;;;6153023;23;19913;-74
2022/08/15 08:01:24;;;;;;;;;;;14.70;55.60;;;;;;6125410;23;19915;-73
2022/08/15 08:03:53;;;;;;;;;;;14.60;56.00;;;;;;6149829;23;19918;-73
2022/08/15 08:06:22;;;;;;;;;;;14.60;56.30;;;;;;6127134;23;19901;-74
2022/08/15 08:08:52;;;;;;;;;;;14.60;56.00;;;;;;6126679;23;19996;-75
2022/08/15 08:11:21;;;;;;;;;;;14.50;56.00;;;;;;6152625;23;19931;-75
2022/08/15 08:13:52;;;;;;;;;;;14.60;56.30;;;;;;6126851;23;19924;-77
2022/08/15 08:16:21;;;;;;;;;;;14.50;56.20;;;;;;6152968;23;20320;-76
2022/08/15 08:18:50;;;;;;;;;;;14.50;56.30;;;;;;6125823;23;20054;-76
2022/08/15 08:21:18;;;;;;;;;;;14.50;56.10;;;;;;6126706;23;19905;-75
2022/08/15 08:23:46;;;;;;;;;;;14.50;56.40;;;;;;6152516;23;19915;-79
2022/08/15 08:26:16;;;;;;;;;;;14.50;56.70;;;;;;6127020;23;19920;-77
2022/08/15 08:28:46;;;;;;;;;;;14.50;56.70;;;;;;6150981;23;19913;-76
2022/08/15 08:31:32;;;;;;;;;;;14.50;56.90;;;;;;6149868;23;19920;-76
2022/08/15 08:33:59;;;;;;;;;;;14.50;57.20;;;;;;6125618;23;19912;-74
2022/08/15 08:36:26;;;;;;;;;;;14.40;57.00;;;;;;6151097;23;20320;-78
2022/08/15 08:39:06;;;;;;;;;;;14.40;57.70;;;;;;6150733;23;20215;-77
2022/08/15 08:41:36;;;;;;;;;;;14.40;56.50;;;;;;6125929;23;19936;-77
2022/08/15 08:44:02;;;;;;;;;;;14.40;57.50;;;;;;6125873;23;19940;-77
2022/08/15 08:46:48;;;;;;;;;;;14.40;57.60;;;;;;6152338;23;20385;-77
2022/08/15 08:49:25;;;;;;;;;;;14.30;57.20;;;;;;6152950;23;19912;-77
2022/08/15 08:51:57;;;;;;;;;;;14.30;57.70;;;;;;6125182;23;19916;-77
2022/08/15 08:54:30;;;;;;;;;;;14.30;57.60;;;;;;6124493;23;19908;-77
2022/08/15 08:57:00;;;;;;;;;;;14.30;57.90;;;;;;6126470;23;19909;-77
2022/08/15 08:59:28;;;;;;;;;;;14.30;57.60;;;;;;6126623;23;19908;-77
2022/08/15 09:02:21;;;;;;;;;;;14.30;57.80;;;;;;6152329;23;20337;-77
2022/08/15 09:04:50;;;;;;;;;;;14.30;58.00;;;;;;6143535;23;19947;-77
2022/08/15 09:07:28;;;;;;;;;;;14.20;58.20;;;;;;6126129;23;19916;-77
2022/08/15 09:09:55;;;;;;;;;;;14.20;58.40;;;;;;6126060;23;19932;-78
2022/08/15 09:15:17;;;;;;;;;;;14.20;58.20;;;;;;6129227;23;19915;-73
2022/08/15 09:17:48;;;;;;;;;;;14.20;58.40;;;;;;6125933;23;19939;-73
2022/08/15 09:20:34;;;;;;;;;;;14.20;58.80;;;;;;6125155;23;19912;-74
2022/08/15 09:23:01;;;;;;;;;;;14.20;58.80;;;;;;6126328;23;19908;-72
2022/08/15 09:25:28;;;;;;;;;;;14.20;58.50;;;;;;6151934;23;20328;-77
2022/08/15 09:28:10;;;;;;;;;;;14.10;58.80;;;;;;6101387;23;19921;-77
2022/08/15 09:30:37;;;;;;;;;;;14.10;58.80;;;;;;6151282;23;19954;-75
2022/08/15 09:33:10;;;;;;;;;;;14.10;59.10;;;;;;6125210;23;20200;-76
2022/08/15 09:35:43;;;;;;;;;;;14.10;59.20;;;;;;6151785;23;19905;-77
2022/08/15 09:38:32;;;;;;;;;;;14.10;59.30;;;;;;6126309;23;19921;-78
2022/08/15 09:41:08;;;;;;;;;;;14.00;59.50;;;;;;6151619;23;19955;-78
2022/08/15 09:43:37;;;;;;;;;;;14.00;59.40;;;;;;6100764;23;19916;-78
2022/08/15 09:46:12;;;;;;;;;;;14.00;59.80;;;;;;6150575;23;19916;-75
2022/08/15 09:48:52;;;;;;;;;;;14.00;59.80;;;;;;6150258;23;19916;-74
2022/08/15 09:51:37;;;;;;;;;;;14.00;59.60;;;;;;6124437;23;19919;-77
2022/08/15 09:54:05;;;;;;;;;;;14.00;60.00;;;;;;6151094;23;20006;-76
2022/08/15 09:56:32;;;;;;;;;;;14.00;60.30;;;;;;6150529;23;19913;-76
2022/08/15 09:59:11;;;;;;;;;;;14.00;59.70;;;;;;6125025;23;19909;-78
2022/08/15 10:01:43;;;;;;;;;;;14.00;60.30;;;;;;6150409;23;19909;-77
2022/08/15 10:04:12;;;;;;;;;;;14.00;60.10;;;;;;6147566;23;20335;-76
2022/08/15 10:06:48;;;;;;;;;;;14.00;60.40;;;;;;6149686;23;19908;-78
2022/08/15 10:09:16;;;;;;;;;;;14.00;60.50;;;;;;6151886;23;19935;-76
2022/08/15 10:11:46;;;;;;;;;;;14.00;60.90;;;;;;6125510;23;19912;-76
2022/08/15 10:14:22;;;;;;;;;;;13.90;61.40;;;;;;6151172;23;19905;-78
2022/08/15 10:16:50;;;;;;;;;;;13.80;61.50;;;;;;6151069;23;19908;-76
2022/08/15 10:19:27;;;;;;;;;;;13.80;61.40;;;;;;6126050;23;20241;-73
2022/08/15 10:21:58;;;;;;;;;;;13.80;62.30;;;;;;6150510;23;19921;-72
2022/08/15 10:24:28;;;;;;;;;;;13.70;62.20;;;;;;6126149;23;19916;-73
2022/08/15 10:27:22;;;;;;;;;;;13.70;61.90;;;;;;6124705;23;19908;-74
2022/08/15 10:29:50;;;;;;;;;;;13.70;62.50;;;;;;6150504;23;20340;-77
2022/08/15 10:32:43;;;;;;;;;;;13.60;62.40;;;;;;6125048;23;20019;-78
2022/08/15 10:35:19;;;;;;;;;;;13.60;62.70;;;;;;6146408;23;19951;-81
2022/08/15 10:37:51;;;;;;;;;;;13.50;63.00;;;;;;6151099;23;19915;-82
2022/08/15 10:40:29;;;;;;;;;;;13.60;62.90;;;;;;6151917;23;19963;-76
2022/08/15 10:43:02;;;;;;;;;;;13.50;63.40;;;;;;6124641;23;19963;-76
2022/08/15 10:45:45;;;;;;;;;;;13.50;63.50;;;;;;6149947;23;19909;-74
2022/08/15 10:48:27;;;;;;;;;;;13.40;63.90;;;;;;6124695;23;19992;-77
2022/08/15 10:50:54;;;;;;;;;;;13.40;64.10;;;;;;6151152;23;19919;-74
2022/08/15 10:53:23;;;;;;;;;;;13.30;63.80;;;;;;6146455;23;19991;-76
2022/08/15 10:55:50;;;;;;;;;;;13.30;63.70;;;;;;6150065;23;19908;-77
2022/08/15 10:58:20;;;;;;;;;;;13.30;63.80;;;;;;6149928;23;20251;-74
2022/08/15 11:00:51;;;;;;;;;;;13.30;64.30;;;;;;6123707;23;20269;-77
2022/08/15 11:03:24;;;;;;;;;;;13.30;64.10;;;;;;6123944;23;19908;-78
2022/08/15 11:05:58;;;;;;;;;;;13.30;64.20;;;;;;6121343;23;19916;-75
2022/08/15 11:08:25;;;;;;;;;;;13.20;64.30;;;;;;6149477;23;19908;-77
2022/08/15 11:10:52;;;;;;;;;;;13.20;64.40;;;;;;6150271;23;19905;-75
2022/08/15 11:13:21;;;;;;;;;;;13.20;64.10;;;;;;6123497;23;19917;-77
2022/08/15 11:15:55;;;;;;;;;;;13.20;64.50;;;;;;6154304;23;20030;-76
2022/08/15 11:18:23;;;;;;;;;;;13.20;64.50;;;;;;6150304;23;19912;-76
2022/08/15 11:20:52;;;;;;;;;;;13.20;64.10;;;;;;6153167;23;20283;-74
2022/08/15 11:23:36;;;;;;;;;;;13.10;64.20;;;;;;6153210;23;19908;-74
2022/08/15 11:26:03;;;;;;;;;;;13.20;64.70;;;;;;6153118;23;19913;-79
2022/08/15 11:28:33;;;;;;;;;;;13.20;64.20;;;;;;6126460;23;20116;-78
2022/08/15 11:31:01;;;;;;;;;;;13.20;64.40;;;;;;6154362;23;20277;-77
2022/08/15 11:33:57;;;;;;;;;;;13.10;64.20;;;;;;6154204;23;19917;-78
2022/08/15 11:36:24;;;;;;;;;;;13.10;64.40;;;;;;6127665;23;19908;-78
2022/08/15 11:38:54;;;;;;;;;;;13.10;64.30;;;;;;6127926;23;19924;-77
2022/08/15 11:41:22;;;;;;;;;;;13.10;64.10;;;;;;6127345;23;19959;-75
2022/08/15 11:43:50;;;;;;;;;;;13.10;64.20;;;;;;6128960;23;19913;-74
2022/08/15 11:46:17;;;;;;;;;;;13.00;64.40;;;;;;6127686;23;19909;-81
2022/08/15 11:48:46;;;;;;;;;;;13.00;63.90;;;;;;6125498;23;19909;-78
2022/08/15 11:51:16;;;;;;;;;;;13.00;63.90;;;;;;6127144;23;20243;-77
2022/08/15 11:54:02;;;;;;;;;;;13.00;63.80;;;;;;6154259;23;19908;-77
2022/08/15 11:56:47;;;;;;;;;;;13.00;64.40;;;;;;6155095;23;19915;-78
2022/08/15 11:59:14;;;;;;;;;;;12.90;64.40;;;;;;6157020;23;19912;-78
2022/08/15 12:01:44;;;;;;;;;;;12.90;64.80;;;;;;6156149;23;19908;-77
2022/08/15 12:04:12;;;;;;;;;;;12.80;64.90;;;;;;6157003;23;19936;-78
2022/08/15 12:06:39;;;;;;;;;;;12.80;65.30;;;;;;6155412;23;19943;-83
2022/08/15 12:09:06;;;;;;;;;;;12.80;65.70;;;;;;6131084;23;19904;-76
2022/08/15 12:11:35;;;;;;;;;;;12.80;65.80;;;;;;6153606;23;19912;-82
2022/08/15 12:14:12;;;;;;;;;;;12.80;65.60;;;;;;6128943;23;19979;-73
2022/08/15 12:16:46;;;;;;;;;;;12.80;66.10;;;;;;6130855;23;19956;-74
2022/08/15 12:19:50;;;;;;;;;;;12.80;66.70;;;;;;6131470;23;19905;-74
2022/08/15 12:22:29;;;;;;;;;;;12.80;66.20;;;;;;6037925;23;19921;-74
2022/08/15 12:24:56;;;;;;;;;;;12.80;66.60;;;;;;6117901;23;19979;-74
2022/08/15 12:27:22;;;;;;;;;;;12.80;66.50;;;;;;6104507;23;19904;-74
2022/08/15 12:29:49;;;;;;;;;;;12.80;66.70;;;;;;6104622;23;20231;-74
2022/08/15 12:32:16;;;;;;;;;;;12.80;66.30;;;;;;6155438;23;19948;-74
2022/08/15 12:34:49;;;;;;;;;;;12.80;66.50;;;;;;6155217;23;19932;-74
2022/08/15 12:37:18;;;;;;;;;;;12.70;66.30;;;;;;6104515;23;20308;-74
2022/08/15 12:39:46;;;;;;;;;;;12.70;66.60;;;;;;6129299;23;19940;-74
2022/08/15 12:42:14;;;;;;;;;;;12.70;66.80;;;;;;6154806;23;19908;-74
2022/08/15 12:44:40;;;;;;;;;;;12.70;67.30;;;;;;6153671;23;19908;-74
2022/08/15 12:47:07;;;;;;;;;;;12.70;67.40;;;;;;6154574;23;19908;-74
2022/08/15 12:49:34;;;;;;;;;;;12.70;67.70;;;;;;6154589;23;20288;-74
2022/08/15 12:52:00;;;;;;;;;;;12.80;67.90;;;;;;6154902;23;19987;-74
2022/08/15 12:54:27;;;;;;;;;;;12.70;67.90;;;;;;6154615;23;19908;-74
2022/08/15 12:56:54;;;;;;;;;;;12.70;67.90;;;;;;6154900;23;19980;-74
2022/08/15 12:59:21;;;;;;;;;;;12.70;67.60;;;;;;6155837;23;19904;-74
2022/08/15 13:01:47;;;;;;;;;;;12.70;67.90;;;;;;6154819;23;19905;-74
2022/08/15 13:04:15;;;;;;;;;;;12.70;67.50;;;;;;6154475;23;19905;-74
2022/08/15 13:06:45;;;;;;;;;;;12.70;67.00;;;;;;6154273;23;20280;-74
2022/08/15 13:09:13;;;;;;;;;;;12.70;67.30;;;;;;6155160;23;19904;-74
2022/08/15 13:11:40;;;;;;;;;;;12.70;67.40;;;;;;6154399;23;19920;-74
2022/08/15 13:14:07;;;;;;;;;;;12.70;67.40;;;;;;6154722;23;19967;-74
2022/08/15 13:16:35;;;;;;;;;;;12.70;67.20;;;;;;6153845;23;20324;-74
2022/08/15 13:19:04;;;;;;;;;;;12.70;67.10;;;;;;6154612;23;19975;-74
2022/08/15 13:24:17;;;;;;;;;;;12.70;66.70;;;;;;6154562;23;20035;-74
2022/08/15 13:26:43;;;;;;;;;;;12.70;67.10;;;;;;6155157;23;19905;-74
2022/08/15 13:29:10;;;;;;;;;;;12.70;66.90;;;;;;6154625;23;20236;-74
2022/08/15 13:31:37;;;;;;;;;;;12.70;67.40;;;;;;6128822;23;19909;-74
2022/08/15 13:34:04;;;;;;;;;;;12.70;67.40;;;;;;6128656;23;20355;-73
2022/08/15 13:36:31;;;;;;;;;;;12.70;67.90;;;;;;6128987;23;19911;-74
2022/08/15 13:39:02;;;;;;;;;;;12.70;67.90;;;;;;6153375;23;19924;-74
2022/08/15 13:41:29;;;;;;;;;;;12.70;68.30;;;;;;6128335;23;19915;-74
2022/08/15 13:43:59;;;;;;;;;;;12.70;68.10;;;;;;6153569;23;19905;-74
2022/08/15 13:46:25;;;;;;;;;;;12.70;67.80;;;;;;6127678;23;20577;-74
2022/08/15 13:48:53;;;;;;;;;;;12.70;67.60;;;;;;6153620;23;19915;-74
2022/08/15 13:51:25;;;;;;;;;;;12.80;67.90;;;;;;6153685;23;19934;-74
2022/08/15 13:53:52;;;;;;;;;;;12.70;67.90;;;;;;6154582;23;19979;-74
2022/08/15 13:56:18;;;;;;;;;;;12.70;68.00;;;;;;6154906;23;19913;-74
2022/08/15 13:58:45;;;;;;;;;;;12.70;67.60;;;;;;6154149;23;19909;-73
2022/08/15 14:01:12;;;;;;;;;;;12.70;67.20;;;;;;6154965;23;20224;-74
2022/08/15 14:03:39;;;;;;;;;;;12.70;67.40;;;;;;6153850;23;19905;-74
2022/08/15 14:06:07;;;;;;;;;;;12.80;67.30;;;;;;6125429;23;19912;-74
2022/08/15 14:08:33;;;;;;;;;;;12.80;67.80;;;;;;6154383;23;19947;-74
2022/08/15 14:11:00;;;;;;;;;;;12.80;67.40;;;;;;6154296;23;19905;-74
2022/08/15 14:13:27;;;;;;;;;;;12.80;67.30;;;;;;6154194;23;19913;-74
2022/08/15 14:15:54;;;;;;;;;;;12.80;67.50;;;;;;6154121;23;19905;-74
2022/08/15 14:18:21;;;;;;;;;;;12.80;67.70;;;;;;6128552;23;19905;-74
2022/08/15 14:20:49;;;;;;;;;;;12.80;67.60;;;;;;6154122;23;20213;-74
2022/08/15 14:23:17;;;;;;;;;;;12.80;67.50;;;;;;6154025;23;19911;-74
2022/08/15 14:25:44;;;;;;;;;;;12.80;67.70;;;;;;6127752;23;19912;-74
2022/08/15 14:28:10;;;;;;;;;;;12.80;68.00;;;;;;6154544;23;20339;-74
2022/08/15 14:30:38;;;;;;;;;;;12.70;68.00;;;;;;6154573;23;20272;-74
2022/08/15 14:33:08;;;;;;;;;;;12.80;67.80;;;;;;6154539;23;20317;-74
2022/08/15 14:35:35;;;;;;;;;;;12.80;68.20;;;;;;6154691;23;19992;-74
2022/08/15 14:38:02;;;;;;;;;;;12.70;67.80;;;;;;6127715;23;19924;-74
2022/08/15 14:40:31;;;;;;;;;;;12.70;68.00;;;;;;6104214;23;20346;-74
2022/08/15 14:42:58;;;;;;;;;;;12.70;68.00;;;;;;6127620;23;19905;-74
2022/08/15 14:45:28;;;;;;;;;;;12.70;68.10;;;;;;6153191;23;19928;-74
2022/08/15 14:47:54;;;;;;;;;;;12.70;68.40;;;;;;6128242;23;19905;-74
2022/08/15 14:50:21;;;;;;;;;;;12.70;68.40;;;;;;6128640;23;19919;-74
2022/08/15 14:52:48;;;;;;;;;;;12.70;68.30;;;;;;6128057;23;20249;-74
2022/08/15 14:55:15;;;;;;;;;;;12.70;68.50;;;;;;6154010;23;19916;-74
2022/08/15 14:57:42;;;;;;;;;;;12.60;68.50;;;;;;6154554;23;19905;-74
2022/08/15 15:00:11;;;;;;;;;;;12.60;68.40;;;;;;6126025;23;19912;-74
2022/08/15 15:02:38;;;;;;;;;;;12.60;68.30;;;;;;6128022;23;19918;-74
2022/08/15 15:05:06;;;;;;;;;;;12.50;68.50;;;;;;6128055;23;19904;-75
2022/08/15 15:07:33;;;;;;;;;;;12.50;68.50;;;;;;6127960;23;20324;-74
2022/08/15 15:09:59;;;;;;;;;;;12.50;68.50;;;;;;6103491;23;19909;-74
2022/08/15 15:12:26;;;;;;;;;;;12.50;68.60;;;;;;6154204;23;19916;-75
2022/08/15 15:14:57;;;;;;;;;;;12.40;68.60;;;;;;6153621;23;19911;-74
2022/08/15 15:17:24;;;;;;;;;;;12.40;68.70;;;;;;6128424;23;20399;-74
2022/08/15 15:19:51;;;;;;;;;;;12.40;69.00;;;;;;6154707;23;20232;-72
2022/08/15 15:22:20;;;;;;;;;;;12.40;69.10;;;;;;6153745;23;19975;-72
2022/08/15 15:24:47;;;;;;;;;;;12.30;69.50;;;;;;6153384;23;19905;-72
2022/08/15 15:27:14;;;;;;;;;;;12.30;70.10;;;;;;6153867;23;19905;-75
2022/08/15 15:29:41;;;;;;;;;;;12.20;70.20;;;;;;6128646;23;20320;-74
2022/08/15 15:32:08;;;;;;;;;;;12.20;70.30;;;;;;6128512;23;19919;-74
2022/08/15 15:34:34;;;;;;;;;;;12.20;70.40;;;;;;6153957;23;20315;-72
2022/08/15 15:37:01;;;;;;;;;;;12.10;70.00;;;;;;6128206;23;19904;-72
2022/08/15 15:39:28;;;;;;;;;;;12.20;70.30;;;;;;6153110;23;19921;-72
2022/08/15 15:41:54;;;;;;;;;;;12.10;69.80;;;;;;6154667;23;19905;-72
2022/08/15 15:44:22;;;;;;;;;;;12.10;70.30;;;;;;6127684;23;19905;-72
2022/08/15 15:46:49;;;;;;;;;;;12.10;70.50;;;;;;6153656;23;19916;-72
2022/08/15 15:49:17;;;;;;;;;;;12.20;70.30;;;;;;6127656;23;19909;-72
2022/08/15 15:51:44;;;;;;;;;;;12.20;70.50;;;;;;6127688;23;19912;-72
2022/08/15 15:54:10;;;;;;;;;;;12.10;70.30;;;;;;6151945;23;19936;-72
2022/08/15 15:56:37;;;;;;;;;;;12.00;70.30;;;;;;6153087;23;19905;-72
2022/08/15 15:59:04;;;;;;;;;;;12.00;70.50;;;;;;6154248;23;19936;-72
2022/08/15 16:01:31;;;;;;;;;;;12.00;70.80;;;;;;6154823;23;20315;-72
2022/08/15 16:04:00;;;;;;;;;;;12.00;70.90;;;;;;6129592;23;20244;-73
2022/08/15 16:06:26;;;;;;;;;;;12.00;71.00;;;;;;6130805;23;20335;-72
2022/08/15 16:08:53;;;;;;;;;;;11.90;70.90;;;;;;6154576;23;19908;-72
2022/08/15 16:11:22;;;;;;;;;;;11.80;70.80;;;;;;6129195;23;19932;-72
2022/08/15 16:13:54;;;;;;;;;;;11.80;70.90;;;;;;6154431;23;19928;-72
2022/08/15 16:16:47;;;;;;;;;;;11.80;71.20;;;;;;6154959;23;19987;-72
2022/08/15 16:19:33;;;;;;;;;;;11.70;71.40;;;;;;6150209;23;20247;-72
2022/08/15 16:22:02;;;;;;;;;;;11.70;71.50;;;;;;6155284;23;19912;-72
2022/08/15 16:24:45;;;;;;;;;;;11.70;71.70;;;;;;6156014;23;20323;-72
2022/08/15 16:27:15;;;;;;;;;;;11.70;71.70;;;;;;6128822;23;19911;-75
2022/08/15 16:30:02;;;;;;;;;;;11.70;72.30;;;;;;6155065;23;20342;-74
2022/08/15 16:32:29;;;;;;;;;;;11.70;71.90;;;;;;6154335;23;19917;-74
2022/08/15 16:34:57;;;;;;;;;;;11.60;71.90;;;;;;6154089;23;19913;-73
2022/08/15 16:37:30;;;;;;;;;;;11.60;71.90;;;;;;6128911;23;20328;-73
2022/08/15 16:39:58;;;;;;;;;;;11.60;72.00;;;;;;6154740;23;19921;-72
2022/08/15 16:42:31;;;;;;;;;;;11.60;72.10;;;;;;6154268;23;20282;-73
2022/08/15 16:44:59;;;;;;;;;;;11.60;72.30;;;;;;6155181;23;19936;-73
2022/08/15 16:47:40;;;;;;;;;;;11.60;72.40;;;;;;6129556;23;19905;-72
2022/08/15 16:50:07;;;;;;;;;;;11.60;72.10;;;;;;6153735;23;20335;-72
2022/08/15 16:52:55;;;;;;;;;;;11.60;72.10;;;;;;6154288;23;19913;-72
2022/08/15 16:55:25;;;;;;;;;;;11.50;72.40;;;;;;6154938;23;19908;-72
2022/08/15 16:58:01;;;;;;;;;;;11.60;72.20;;;;;;6155039;23;20248;-72
2022/08/15 17:00:49;;;;;;;;;;;11.50;72.10;;;;;;6129171;23;19904;-72
2022/08/15 17:03:30;;;;;;;;;;;11.50;72.00;;;;;;6154640;23;20032;-72
2022/08/15 17:06:04;;;;;;;;;;;11.60;71.80;;;;;;6154525;23;19967;-73
2022/08/15 17:08:31;;;;;;;;;;;11.50;71.90;;;;;;6154476;23;20251;-72
2022/08/15 17:11:03;;;;;;;;;;;11.50;71.70;;;;;;6154832;23;19992;-72
2022/08/15 17:13:43;;;;;;;;;;;11.50;71.90;;;;;;6127837;23;19988;-73
2022/08/15 17:16:15;;;;;;;;;;;11.40;71.80;;;;;;6128890;23;19988;-72
2022/08/15 17:18:54;;;;;;;;;;;11.40;71.40;;;;;;6154522;23;19905;-72
2022/08/15 17:21:29;;;;;;;;;;;11.40;71.60;;;;;;6128607;23;19904;-72
2022/08/15 17:24:01;;;;;;;;;;;11.40;72.00;;;;;;6128019;23;19904;-72
2022/08/15 17:26:32;;;;;;;;;;;11.40;71.80;;;;;;6154764;23;19960;-73
2022/08/15 17:29:03;;;;;;;;;;;11.30;71.80;;;;;;6128498;23;19908;-73
2022/08/15 17:31:30;;;;;;;;;;;11.30;72.20;;;;;;6128953;23;19913;-72
2022/08/15 17:34:01;;;;;;;;;;;11.30;72.60;;;;;;6154257;23;19908;-73
2022/08/15 17:36:28;;;;;;;;;;;11.30;72.40;;;;;;6127940;23;19905;-72
2022/08/15 17:39:15;;;;;;;;;;;11.30;72.50;;;;;;6128832;23;19916;-72
2022/08/15 17:41:43;;;;;;;;;;;11.20;72.20;;;;;;6153786;23;19904;-72
2022/08/15 17:44:21;;;;;;;;;;;11.20;72.10;;;;;;6127284;23;19969;-72
2022/08/15 17:46:50;;;;;;;;;;;11.20;72.30;;;;;;6127760;23;19912;-73
2022/08/15 17:49:18;;;;;;;;;;;11.20;72.70;;;;;;6103962;23;19904;-72
2022/08/15 17:51:55;;;;;;;;;;;11.20;72.90;;;;;;6104188;23;19936;-73
2022/08/15 17:54:22;;;;;;;;;;;11.20;72.50;;;;;;6127926;23;20312;-72
2022/08/15 17:56:59;;;;;;;;;;;11.20;72.40;;;;;;6154454;23;20298;-73
2022/08/15 17:59:32;;;;;;;;;;;11.10;72.60;;;;;;6128733;23;19912;-73
2022/08/15 18:01:59;;;;;;;;;;;11.10;72.60;;;;;;6153800;23;20332;-72
2022/08/15 18:04:26;;;;;;;;;;;11.00;72.90;;;;;;6128078;23;19909;-73
2022/08/15 18:06:52;;;;;;;;;;;11.10;73.00;;;;;;6128905;23;19904;-73
2022/08/15 18:09:20;;;;;;;;;;;11.00;72.90;;;;;;6128315;23;19909;-73
2022/08/15 18:11:50;;;;;;;;;;;11.00;73.20;;;;;;6129137;23;19920;-73
2022/08/15 18:14:16;;;;;;;;;;;11.10;73.00;;;;;;6153331;23;19909;-74
2022/08/15 18:17:02;;;;;;;;;;;11.00;73.00;;;;;;6153653;23;19904;-73
2022/08/15 18:19:30;;;;;;;;;;;11.00;72.90;;;;;;6154050;23;19967;-73
2022/08/15 18:21:57;;;;;;;;;;;11.00;72.90;;;;;;6128953;23;20038;-72
2022/08/15 18:24:36;;;;;;;;;;;11.00;73.20;;;;;;6128294;23;19911;-75
2022/08/15 18:27:20;;;;;;;;;;;11.00;73.10;;;;;;6155046;23;20327;-74
2022/08/15 18:29:57;;;;;;;;;;;10.90;73.40;;;;;;6154376;23;19913;-74
2022/08/15 18:32:23;;;;;;;;;;;10.90;72.90;;;;;;6153392;23;19912;-75
2022/08/15 18:35:00;;;;;;;;;;;10.90;72.70;;;;;;6154171;23;19905;-75
2022/08/15 18:37:30;;;;;;;;;;;11.00;72.70;;;;;;6125766;23;19911;-74
2022/08/15 18:42:56;;;;;;;;;;;10.90;72.50;;;;;;6152899;23;20391;-72
2022/08/15 18:45:30;;;;;;;;;;;10.90;72.50;;;;;;6127164;23;19905;-75
2022/08/15 18:48:17;;;;;;;;;;;10.90;72.40;;;;;;6128113;23;20272;-75
2022/08/15 18:51:04;;;;;;;;;;;10.90;72.40;;;;;;6154945;23;19952;-75
2022/08/15 18:53:31;;;;;;;;;;;10.90;72.60;;;;;;6133022;23;19928;-74
2022/08/15 18:55:58;;;;;;;;;;;10.90;72.70;;;;;;6153235;23;19912;-75
2022/08/15 18:58:31;;;;;;;;;;;10.90;72.70;;;;;;6154194;23;19940;-74
2022/08/15 19:01:11;;;;;;;;;;;10.80;72.80;;;;;;6153687;23;19911;-74
2022/08/15 19:03:43;;;;;;;;;;;10.80;73.10;;;;;;6127960;23;20482;-73
2022/08/15 19:06:12;;;;;;;;;;;10.80;73.20;;;;;;6153026;23;19912;-75
2022/08/15 19:08:40;;;;;;;;;;;10.80;73.30;;;;;;6153433;23;20248;-75
2022/08/15 19:11:09;;;;;;;;;;;10.80;73.30;;;;;;6153214;23;19904;-75
2022/08/15 19:13:40;;;;;;;;;;;10.80;73.30;;;;;;6154280;23;19952;-74
2022/08/15 19:16:09;;;;;;;;;;;10.70;73.40;;;;;;6128379;23;19995;-75
2022/08/15 19:18:54;;;;;;;;;;;10.70;73.80;;;;;;6153771;23;19909;-74
2022/08/15 19:21:21;;;;;;;;;;;10.70;74.20;;;;;;6153943;23;19916;-76
2022/08/15 19:23:48;;;;;;;;;;;10.70;74.10;;;;;;6153109;23;20279;-75
2022/08/15 19:34:28;;;;;;;;;;;10.60;74.40;;;;;;6151259;23;20367;-75
2022/08/15 19:36:55;;;;;;;;;;;10.50;74.30;;;;;;6155667;23;19912;-75
2022/08/15 19:39:24;;;;;;;;;;;10.60;74.50;;;;;;6155608;23;20290;-75
2022/08/15 19:42:09;;;;;;;;;;;10.60;74.50;;;;;;6155704;23;19911;-75
2022/08/15 19:44:38;;;;;;;;;;;10.60;74.50;;;;;;6155344;23;19905;-75
2022/08/15 19:47:10;;;;;;;;;;;10.50;74.60;;;;;;6129926;23;20283;-75
2022/08/15 19:52:43;;;;;;;;;;;10.50;74.70;;;;;;6133962;23;19920;-75
2022/08/15 19:55:22;;;;;;;;;;;10.50;74.70;;;;;;6155488;23;19905;-75
2022/08/15 19:57:49;;;;;;;;;;;10.40;74.90;;;;;;6129644;23;19904;-75
2022/08/15 20:00:20;;;;;;;;;;;10.40;74.90;;;;;;6155445;23;19943;-75
2022/08/15 20:02:52;;;;;;;;;;;10.40;75.10;;;;;;6130053;23;19913;-75
2022/08/15 20:05:26;;;;;;;;;;;10.30;75.10;;;;;;6155567;23;19912;-75
2022/08/15 20:08:12;;;;;;;;;;;10.40;75.40;;;;;;6155824;23;19932;-75
2022/08/15 20:10:48;;;;;;;;;;;10.30;75.50;;;;;;6105625;23;19904;-75
2022/08/15 20:13:17;;;;;;;;;;;10.30;75.80;;;;;;6155198;23;19924;-75
2022/08/15 20:15:58;;;;;;;;;;;10.30;75.90;;;;;;6129015;23;19960;-75
2022/08/15 20:18:30;;;;;;;;;;;10.20;76.20;;;;;;6155501;23;19985;-75
2022/08/15 20:21:01;;;;;;;;;;;10.20;76.30;;;;;;6129888;23;19905;-76
2022/08/15 20:23:35;;;;;;;;;;;10.20;76.60;;;;;;6155222;23;19905;-75
2022/08/15 20:26:14;;;;;;;;;;;10.10;77.10;;;;;;6128403;23;19905;-75
2022/08/15 20:28:40;;;;;;;;;;;10.10;77.50;;;;;;6130347;23;19916;-75
2022/08/15 20:31:18;;;;;;;;;;;10.10;77.60;;;;;;6129295;23;19915;-75
2022/08/15 20:33:44;;;;;;;;;;;10.10;77.90;;;;;;6125470;23;20319;-75
2022/08/15 20:36:14;;;;;;;;;;;10.00;77.90;;;;;;6154376;23;19905;-75
2022/08/15 20:38:43;;;;;;;;;;;10.00;77.90;;;;;;6128454;23;19912;-75